FZAA/FIH METAR and TAF weather

Enter ICAO airport designator
Station Type Date Time Source
FZAA METAR 2018/07/19 07:00 UTC NOAA

FZAA 190700Z 24010KT 1500 BR SCT012 OVC014 22/18 Q1017 BECMG 0800 FG


Station Type Date Time Source
FZAA Decoded METAR 2018/07/19 07:00 UTC NOAA

Kinshasa / N'Djili, Congo, Democratic Republic of the (FZAA) 04-23S 015-26E 312M
Jul 19, 2018 - 03:00 AM EDT / 2018.07.19 0700 UTC
Wind: from the WSW (240 degrees) at 12 MPH (10 KT):0
Visibility: less than 1 mile:0
Sky conditions: overcast
Weather: mist
Temperature: 71 F (22 C)
Dew Point: 64 F (18 C)
Relative Humidity: 78%
Pressure (altimeter): 30.03 in. Hg (1017 hPa)
ob: FZAA 190700Z 24010KT 1500 BR SCT012 OVC014 22/18 Q1017 BECMG 0800 FG
cycle: 7

Station Type Date Time Source
FZAA TAF 2018/07/19 06:39 UTC NOAA

TAF FZAA 190500Z 1906/2012 22004KT 3000 BR BKN016
FM191100 300010KT 6000 NSW FEW020
BECMG 1916/1918 18002KT
BECMG 2004/2006 3000 BR BKN016


Example: see airport list